Lisbon Portela Airport

LPPT | LIS

Lisbon , Lisbon , Portugal

Sunday, January 19th, 2020 | 19:20

Weather

LPPT 191900Z 36016KT CAVOK 13/M01 Q1025

Charts

No Charts Available

Gates

94 Available

Runways

2 Available

Events

No events for this airport


New event